sensor_id;sensor_type;location;lat;lon;timestamp;P1;durP1;ratioP1;P2;durP2;ratioP2
15114;SDS011;7658;51.456;7.622;2023-05-10T00:00:53;8.45;;;5.68;;
15114;SDS011;7658;51.456;7.622;2023-05-10T00:03:19;10.32;;;5.97;;
15114;SDS011;7658;51.456;7.622;2023-05-10T00:05:45;10.00;;;5.78;;
15114;SDS011;7658;51.456;7.622;2023-05-10T00:08:11;8.35;;;5.32;;
15114;SDS011;7658;51.456;7.622;2023-05-10T00:10:37;8.38;;;5.47;;
15114;SDS011;7658;51.456;7.622;2023-05-10T00:13:02;6.85;;;5.30;;
15114;SDS011;7658;51.456;7.622;2023-05-10T00:15:28;7.40;;;5.53;;
15114;SDS011;7658;51.456;7.622;2023-05-10T00:17:55;8.38;;;5.18;;
15114;SDS011;7658;51.456;7.622;2023-05-10T00:20:21;7.25;;;5.10;;
15114;SDS011;7658;51.456;7.622;2023-05-10T00:22:47;7.45;;;4.95;;
15114;SDS011;7658;51.456;7.622;2023-05-10T00:25:13;9.52;;;5.63;;
15114;SDS011;7658;51.456;7.622;2023-05-10T00:27:39;9.13;;;5.75;;
15114;SDS011;7658;51.456;7.622;2023-05-10T00:30:05;7.22;;;5.30;;
15114;SDS011;7658;51.456;7.622;2023-05-10T00:32:31;7.45;;;5.20;;
15114;SDS011;7658;51.456;7.622;2023-05-10T00:34:57;8.02;;;5.40;;
15114;SDS011;7658;51.456;7.622;2023-05-10T00:37:23;6.82;;;5.25;;
15114;SDS011;7658;51.456;7.622;2023-05-10T00:39:49;8.23;;;5.03;;
15114;SDS011;7658;51.456;7.622;2023-05-10T00:42:15;8.82;;;5.72;;
15114;SDS011;7658;51.456;7.622;2023-05-10T00:44:40;9.90;;;5.90;;
15114;SDS011;7658;51.456;7.622;2023-05-10T00:47:06;9.52;;;5.53;;
15114;SDS011;7658;51.456;7.622;2023-05-10T00:49:32;7.97;;;5.25;;
15114;SDS011;7658;51.456;7.622;2023-05-10T00:51:59;7.28;;;4.97;;
15114;SDS011;7658;51.456;7.622;2023-05-10T00:54:26;7.85;;;5.05;;
15114;SDS011;7658;51.456;7.622;2023-05-10T00:56:52;7.32;;;4.80;;
15114;SDS011;7658;51.456;7.622;2023-05-10T00:59:18;7.80;;;4.97;;
15114;SDS011;7658;51.456;7.622;2023-05-10T01:01:45;6.47;;;4.75;;
15114;SDS011;7658;51.456;7.622;2023-05-10T01:04:11;7.05;;;5.07;;
15114;SDS011;7658;51.456;7.622;2023-05-10T01:06:38;6.78;;;4.78;;
15114;SDS011;7658;51.456;7.622;2023-05-10T01:09:05;10.80;;;5.60;;
15114;SDS011;7658;51.456;7.622;2023-05-10T01:11:32;6.80;;;4.78;;
15114;SDS011;7658;51.456;7.622;2023-05-10T01:13:58;8.95;;;4.93;;
15114;SDS011;7658;51.456;7.622;2023-05-10T01:16:24;7.82;;;5.28;;
15114;SDS011;7658;51.456;7.622;2023-05-10T01:18:52;6.88;;;5.10;;
15114;SDS011;7658;51.456;7.622;2023-05-10T01:27:20;6.28;;;4.80;;
15114;SDS011;7658;51.456;7.622;2023-05-10T01:35:41;9.13;;;5.35;;
15114;SDS011;7658;51.456;7.622;2023-05-10T01:38:28;8.38;;;4.85;;
15114;SDS011;7658;51.456;7.622;2023-05-10T01:41:12;6.47;;;4.43;;
15114;SDS011;7658;51.456;7.622;2023-05-10T01:43:48;7.38;;;4.63;;
15114;SDS011;7658;51.456;7.622;2023-05-10T01:46:31;11.02;;;5.93;;
15114;SDS011;7658;51.456;7.622;2023-05-10T01:49:02;11.30;;;6.05;;
15114;SDS011;7658;51.456;7.622;2023-05-10T01:51:39;9.48;;;5.47;;
15114;SDS011;7658;51.456;7.622;2023-05-10T01:54:17;12.98;;;5.88;;
15114;SDS011;7658;51.456;7.622;2023-05-10T01:56:45;10.20;;;5.78;;
15114;SDS011;7658;51.456;7.622;2023-05-10T01:59:16;13.13;;;6.22;;
15114;SDS011;7658;51.456;7.622;2023-05-10T02:01:44;11.02;;;6.05;;
15114;SDS011;7658;51.456;7.622;2023-05-10T02:04:13;10.07;;;5.97;;
15114;SDS011;7658;51.456;7.622;2023-05-10T02:06:42;11.57;;;6.63;;
15114;SDS011;7658;51.456;7.622;2023-05-10T02:09:10;17.05;;;7.78;;
15114;SDS011;7658;51.456;7.622;2023-05-10T02:11:38;16.10;;;8.32;;
15114;SDS011;7658;51.456;7.622;2023-05-10T02:14:07;16.35;;;7.90;;
15114;SDS011;7658;51.456;7.622;2023-05-10T02:16:36;13.43;;;7.88;;
15114;SDS011;7658;51.456;7.622;2023-05-10T02:19:04;14.50;;;8.18;;
15114;SDS011;7658;51.456;7.622;2023-05-10T02:21:31;17.50;;;8.57;;
15114;SDS011;7658;51.456;7.622;2023-05-10T02:23:58;16.15;;;8.57;;
15114;SDS011;7658;51.456;7.622;2023-05-10T02:26:26;22.05;;;9.68;;
15114;SDS011;7658;51.456;7.622;2023-05-10T02:28:53;18.55;;;10.23;;
15114;SDS011;7658;51.456;7.622;2023-05-10T02:31:20;17.50;;;9.30;;
15114;SDS011;7658;51.456;7.622;2023-05-10T02:33:46;18.48;;;10.07;;
15114;SDS011;7658;51.456;7.622;2023-05-10T02:36:14;18.38;;;9.93;;
15114;SDS011;7658;51.456;7.622;2023-05-10T02:38:41;18.40;;;10.25;;
15114;SDS011;7658;51.456;7.622;2023-05-10T02:41:08;18.88;;;11.13;;
15114;SDS011;7658;51.456;7.622;2023-05-10T02:43:36;18.55;;;10.80;;
15114;SDS011;7658;51.456;7.622;2023-05-10T02:46:05;17.33;;;10.30;;
15114;SDS011;7658;51.456;7.622;2023-05-10T02:48:30;19.42;;;10.90;;
15114;SDS011;7658;51.456;7.622;2023-05-10T02:50:59;17.05;;;10.18;;
15114;SDS011;7658;51.456;7.622;2023-05-10T02:53:34;17.58;;;9.68;;
15114;SDS011;7658;51.456;7.622;2023-05-10T02:56:09;14.50;;;7.80;;
15114;SDS011;7658;51.456;7.622;2023-05-10T02:58:40;13.23;;;7.32;;
15114;SDS011;7658;51.456;7.622;2023-05-10T03:01:06;10.75;;;6.88;;
15114;SDS011;7658;51.456;7.622;2023-05-10T03:03:32;9.98;;;5.80;;
15114;SDS011;7658;51.456;7.622;2023-05-10T03:05:58;8.80;;;6.03;;
15114;SDS011;7658;51.456;7.622;2023-05-10T03:08:24;8.15;;;5.30;;
15114;SDS011;7658;51.456;7.622;2023-05-10T03:11:39;7.32;;;5.70;;
15114;SDS011;7658;51.456;7.622;2023-05-10T03:13:43;8.85;;;5.60;;
15114;SDS011;7658;51.456;7.622;2023-05-10T03:16:32;8.45;;;5.50;;
15114;SDS011;7658;51.456;7.622;2023-05-10T03:19:06;8.23;;;5.75;;
15114;SDS011;7658;51.456;7.622;2023-05-10T03:21:41;8.13;;;5.30;;
15114;SDS011;7658;51.456;7.622;2023-05-10T03:24:12;10.27;;;6.03;;
15114;SDS011;7658;51.456;7.622;2023-05-10T03:26:40;8.60;;;4.97;;
15114;SDS011;7658;51.456;7.622;2023-05-10T03:29:09;9.75;;;6.13;;
15114;SDS011;7658;51.456;7.622;2023-05-10T03:31:38;8.48;;;5.93;;
15114;SDS011;7658;51.456;7.622;2023-05-10T03:34:04;8.77;;;5.93;;
15114;SDS011;7658;51.456;7.622;2023-05-10T03:36:30;10.52;;;5.85;;
15114;SDS011;7658;51.456;7.622;2023-05-10T03:38:55;9.25;;;6.10;;
15114;SDS011;7658;51.456;7.622;2023-05-10T03:41:21;9.13;;;6.07;;
15114;SDS011;7658;51.456;7.622;2023-05-10T03:43:47;9.23;;;6.10;;
15114;SDS011;7658;51.456;7.622;2023-05-10T03:46:12;8.90;;;6.20;;
15114;SDS011;7658;51.456;7.622;2023-05-10T03:48:38;9.63;;;6.30;;
15114;SDS011;7658;51.456;7.622;2023-05-10T03:51:04;9.00;;;5.75;;
15114;SDS011;7658;51.456;7.622;2023-05-10T03:53:30;9.95;;;6.47;;
15114;SDS011;7658;51.456;7.622;2023-05-10T03:55:55;9.73;;;6.13;;
15114;SDS011;7658;51.456;7.622;2023-05-10T03:58:21;9.57;;;5.90;;
15114;SDS011;7658;51.456;7.622;2023-05-10T04:00:47;8.50;;;5.90;;
15114;SDS011;7658;51.456;7.622;2023-05-10T04:03:13;10.15;;;6.22;;
15114;SDS011;7658;51.456;7.622;2023-05-10T04:05:39;9.88;;;5.88;;
15114;SDS011;7658;51.456;7.622;2023-05-10T04:08:05;12.27;;;6.25;;
15114;SDS011;7658;51.456;7.622;2023-05-10T04:10:31;10.23;;;6.00;;
15114;SDS011;7658;51.456;7.622;2023-05-10T04:12:57;9.20;;;5.68;;
15114;SDS011;7658;51.456;7.622;2023-05-10T04:15:23;9.77;;;5.95;;
15114;SDS011;7658;51.456;7.622;2023-05-10T04:17:49;13.88;;;7.28;;
15114;SDS011;7658;51.456;7.622;2023-05-10T04:20:15;18.50;;;9.02;;
15114;SDS011;7658;51.456;7.622;2023-05-10T04:22:41;13.95;;;8.55;;
15114;SDS011;7658;51.456;7.622;2023-05-10T04:25:07;23.63;;;13.20;;
15114;SDS011;7658;51.456;7.622;2023-05-10T04:27:33;21.55;;;12.00;;
15114;SDS011;7658;51.456;7.622;2023-05-10T04:29:59;15.07;;;10.27;;
15114;SDS011;7658;51.456;7.622;2023-05-10T04:32:24;25.42;;;12.18;;
15114;SDS011;7658;51.456;7.622;2023-05-10T04:34:50;25.58;;;13.10;;
15114;SDS011;7658;51.456;7.622;2023-05-10T04:37:17;22.88;;;13.07;;
15114;SDS011;7658;51.456;7.622;2023-05-10T04:39:43;23.73;;;13.40;;
15114;SDS011;7658;51.456;7.622;2023-05-10T04:42:08;26.90;;;14.93;;
15114;SDS011;7658;51.456;7.622;2023-05-10T04:44:35;25.42;;;13.30;;
15114;SDS011;7658;51.456;7.622;2023-05-10T04:47:01;27.45;;;14.35;;
15114;SDS011;7658;51.456;7.622;2023-05-10T04:49:28;31.33;;;16.77;;
15114;SDS011;7658;51.456;7.622;2023-05-10T04:51:54;32.50;;;17.23;;
15114;SDS011;7658;51.456;7.622;2023-05-10T04:54:20;37.05;;;17.63;;
15114;SDS011;7658;51.456;7.622;2023-05-10T04:56:46;33.65;;;17.83;;
15114;SDS011;7658;51.456;7.622;2023-05-10T04:59:12;36.95;;;18.88;;
15114;SDS011;7658;51.456;7.622;2023-05-10T05:01:38;43.83;;;19.25;;
15114;SDS011;7658;51.456;7.622;2023-05-10T05:04:04;48.25;;;20.35;;
15114;SDS011;7658;51.456;7.622;2023-05-10T05:06:30;38.97;;;18.08;;
15114;SDS011;7658;51.456;7.622;2023-05-10T05:08:55;43.05;;;19.80;;
15114;SDS011;7658;51.456;7.622;2023-05-10T05:11:21;45.28;;;20.05;;
15114;SDS011;7658;51.456;7.622;2023-05-10T05:13:48;42.72;;;20.25;;
15114;SDS011;7658;51.456;7.622;2023-05-10T05:16:14;43.30;;;19.15;;
15114;SDS011;7658;51.456;7.622;2023-05-10T05:18:40;52.53;;;21.77;;
15114;SDS011;7658;51.456;7.622;2023-05-10T05:21:15;45.38;;;19.92;;
15114;SDS011;7658;51.456;7.622;2023-05-10T05:23:41;45.90;;;20.80;;
15114;SDS011;7658;51.456;7.622;2023-05-10T05:26:08;51.63;;;21.75;;
15114;SDS011;7658;51.456;7.622;2023-05-10T05:28:34;45.55;;;21.42;;
15114;SDS011;7658;51.456;7.622;2023-05-10T05:31:02;45.45;;;20.25;;
15114;SDS011;7658;51.456;7.622;2023-05-10T05:33:28;47.47;;;21.63;;
15114;SDS011;7658;51.456;7.622;2023-05-10T05:35:54;51.10;;;21.05;;
15114;SDS011;7658;51.456;7.622;2023-05-10T05:38:20;60.72;;;22.90;;
15114;SDS011;7658;51.456;7.622;2023-05-10T05:40:46;57.92;;;21.80;;
15114;SDS011;7658;51.456;7.622;2023-05-10T05:43:12;50.45;;;22.33;;
15114;SDS011;7658;51.456;7.622;2023-05-10T05:45:41;53.55;;;22.63;;
15114;SDS011;7658;51.456;7.622;2023-05-10T05:48:06;60.38;;;22.80;;
15114;SDS011;7658;51.456;7.622;2023-05-10T05:50:32;52.33;;;22.20;;
15114;SDS011;7658;51.456;7.622;2023-05-10T05:52:58;61.55;;;24.35;;
15114;SDS011;7658;51.456;7.622;2023-05-10T05:55:23;62.83;;;25.35;;
15114;SDS011;7658;51.456;7.622;2023-05-10T05:57:50;59.53;;;25.10;;
15114;SDS011;7658;51.456;7.622;2023-05-10T06:00:16;76.00;;;26.35;;
15114;SDS011;7658;51.456;7.622;2023-05-10T06:02:42;69.60;;;27.27;;
15114;SDS011;7658;51.456;7.622;2023-05-10T06:05:08;70.00;;;26.20;;
15114;SDS011;7658;51.456;7.622;2023-05-10T06:07:36;69.25;;;28.10;;
15114;SDS011;7658;51.456;7.622;2023-05-10T06:10:02;68.68;;;28.05;;
15114;SDS011;7658;51.456;7.622;2023-05-10T06:12:28;77.40;;;30.65;;
15114;SDS011;7658;51.456;7.622;2023-05-10T06:14:54;77.20;;;29.80;;
15114;SDS011;7658;51.456;7.622;2023-05-10T06:17:19;75.22;;;31.20;;
15114;SDS011;7658;51.456;7.622;2023-05-10T06:19:46;94.90;;;33.10;;
15114;SDS011;7658;51.456;7.622;2023-05-10T06:22:12;97.97;;;34.78;;
15114;SDS011;7658;51.456;7.622;2023-05-10T06:24:38;86.47;;;31.88;;
15114;SDS011;7658;51.456;7.622;2023-05-10T06:27:04;105.65;;;35.10;;
15114;SDS011;7658;51.456;7.622;2023-05-10T06:29:30;85.22;;;34.10;;
15114;SDS011;7658;51.456;7.622;2023-05-10T06:31:56;85.95;;;34.10;;
15114;SDS011;7658;51.456;7.622;2023-05-10T06:34:22;87.63;;;32.78;;
15114;SDS011;7658;51.456;7.622;2023-05-10T06:36:48;93.90;;;34.20;;
15114;SDS011;7658;51.456;7.622;2023-05-10T06:39:13;88.38;;;34.28;;
15114;SDS011;7658;51.456;7.622;2023-05-10T06:41:39;98.22;;;34.85;;
15114;SDS011;7658;51.456;7.622;2023-05-10T06:44:05;80.82;;;34.20;;
15114;SDS011;7658;51.456;7.622;2023-05-10T06:46:31;100.88;;;36.10;;
15114;SDS011;7658;51.456;7.622;2023-05-10T06:48:56;92.32;;;35.35;;
15114;SDS011;7658;51.456;7.622;2023-05-10T06:51:22;99.97;;;36.65;;
15114;SDS011;7658;51.456;7.622;2023-05-10T06:53:48;105.60;;;36.65;;
15114;SDS011;7658;51.456;7.622;2023-05-10T06:56:13;98.35;;;36.35;;
15114;SDS011;7658;51.456;7.622;2023-05-10T06:58:39;94.60;;;35.95;;
15114;SDS011;7658;51.456;7.622;2023-05-10T07:01:05;101.70;;;38.13;;
15114;SDS011;7658;51.456;7.622;2023-05-10T07:03:31;101.95;;;36.92;;
15114;SDS011;7658;51.456;7.622;2023-05-10T07:06:01;96.70;;;36.17;;
15114;SDS011;7658;51.456;7.622;2023-05-10T07:08:28;101.30;;;37.40;;
15114;SDS011;7658;51.456;7.622;2023-05-10T07:10:59;96.82;;;37.42;;
15114;SDS011;7658;51.456;7.622;2023-05-10T07:13:26;92.85;;;35.85;;
15114;SDS011;7658;51.456;7.622;2023-05-10T07:15:51;97.80;;;37.58;;
15114;SDS011;7658;51.456;7.622;2023-05-10T07:18:17;88.10;;;38.08;;
15114;SDS011;7658;51.456;7.622;2023-05-10T07:20:43;87.47;;;37.97;;
15114;SDS011;7658;51.456;7.622;2023-05-10T07:23:09;87.47;;;37.35;;
15114;SDS011;7658;51.456;7.622;2023-05-10T07:25:34;80.07;;;36.33;;
15114;SDS011;7658;51.456;7.622;2023-05-10T07:28:00;90.75;;;38.17;;
15114;SDS011;7658;51.456;7.622;2023-05-10T07:30:26;79.65;;;38.28;;
15114;SDS011;7658;51.456;7.622;2023-05-10T07:32:52;81.13;;;36.15;;
15114;SDS011;7658;51.456;7.622;2023-05-10T07:35:17;77.07;;;36.38;;
15114;SDS011;7658;51.456;7.622;2023-05-10T07:37:43;80.32;;;35.75;;
15114;SDS011;7658;51.456;7.622;2023-05-10T07:40:09;79.93;;;36.50;;
15114;SDS011;7658;51.456;7.622;2023-05-10T07:42:35;76.97;;;37.05;;
15114;SDS011;7658;51.456;7.622;2023-05-10T07:45:01;66.60;;;33.65;;
15114;SDS011;7658;51.456;7.622;2023-05-10T07:47:27;57.95;;;30.83;;
15114;SDS011;7658;51.456;7.622;2023-05-10T07:49:52;53.88;;;30.25;;
15114;SDS011;7658;51.456;7.622;2023-05-10T07:52:18;56.75;;;31.23;;
15114;SDS011;7658;51.456;7.622;2023-05-10T07:54:44;50.20;;;27.38;;
15114;SDS011;7658;51.456;7.622;2023-05-10T07:57:10;49.33;;;28.15;;
15114;SDS011;7658;51.456;7.622;2023-05-10T07:59:35;39.67;;;24.67;;
15114;SDS011;7658;51.456;7.622;2023-05-10T08:02:01;34.70;;;21.77;;
15114;SDS011;7658;51.456;7.622;2023-05-10T08:04:27;33.53;;;19.60;;
15114;SDS011;7658;51.456;7.622;2023-05-10T08:06:52;30.17;;;19.60;;
15114;SDS011;7658;51.456;7.622;2023-05-10T08:09:18;29.38;;;19.08;;
15114;SDS011;7658;51.456;7.622;2023-05-10T08:11:48;29.73;;;20.15;;
15114;SDS011;7658;51.456;7.622;2023-05-10T08:14:14;34.95;;;20.30;;
15114;SDS011;7658;51.456;7.622;2023-05-10T08:16:40;28.67;;;18.38;;
15114;SDS011;7658;51.456;7.622;2023-05-10T08:19:06;27.08;;;17.92;;
15114;SDS011;7658;51.456;7.622;2023-05-10T08:21:32;30.83;;;19.63;;
15114;SDS011;7658;51.456;7.622;2023-05-10T08:23:57;31.38;;;18.73;;
15114;SDS011;7658;51.456;7.622;2023-05-10T08:26:23;31.25;;;17.67;;
15114;SDS011;7658;51.456;7.622;2023-05-10T08:28:49;35.80;;;21.30;;
15114;SDS011;7658;51.456;7.622;2023-05-10T08:31:14;28.60;;;19.45;;
15114;SDS011;7658;51.456;7.622;2023-05-10T08:33:40;29.35;;;18.40;;
15114;SDS011;7658;51.456;7.622;2023-05-10T08:36:06;29.73;;;16.60;;
15114;SDS011;7658;51.456;7.622;2023-05-10T08:38:32;24.13;;;15.32;;
15114;SDS011;7658;51.456;7.622;2023-05-10T08:40:58;20.85;;;12.82;;
15114;SDS011;7658;51.456;7.622;2023-05-10T08:43:27;20.50;;;12.60;;
15114;SDS011;7658;51.456;7.622;2023-05-10T08:45:54;17.17;;;10.98;;
15114;SDS011;7658;51.456;7.622;2023-05-10T08:48:22;16.20;;;10.80;;
15114;SDS011;7658;51.456;7.622;2023-05-10T08:50:51;16.40;;;9.95;;
15114;SDS011;7658;51.456;7.622;2023-05-10T08:53:21;16.45;;;10.73;;
15114;SDS011;7658;51.456;7.622;2023-05-10T08:55:50;14.98;;;10.90;;
15114;SDS011;7658;51.456;7.622;2023-05-10T08:58:16;18.88;;;11.63;;
15114;SDS011;7658;51.456;7.622;2023-05-10T09:00:42;14.52;;;11.13;;
15114;SDS011;7658;51.456;7.622;2023-05-10T09:03:08;20.48;;;11.48;;
15114;SDS011;7658;51.456;7.622;2023-05-10T09:05:35;18.85;;;11.95;;
15114;SDS011;7658;51.456;7.622;2023-05-10T09:08:01;17.42;;;11.82;;
15114;SDS011;7658;51.456;7.622;2023-05-10T09:10:27;20.67;;;13.82;;
15114;SDS011;7658;51.456;7.622;2023-05-10T09:12:57;20.20;;;12.98;;
15114;SDS011;7658;51.456;7.622;2023-05-10T09:15:23;16.58;;;10.75;;
15114;SDS011;7658;51.456;7.622;2023-05-10T09:17:49;17.27;;;11.07;;
15114;SDS011;7658;51.456;7.622;2023-05-10T09:20:15;14.73;;;10.30;;
15114;SDS011;7658;51.456;7.622;2023-05-10T09:22:42;16.90;;;9.77;;
15114;SDS011;7658;51.456;7.622;2023-05-10T09:25:13;15.38;;;9.68;;
15114;SDS011;7658;51.456;7.622;2023-05-10T09:27:41;14.50;;;9.35;;
15114;SDS011;7658;51.456;7.622;2023-05-10T09:30:10;11.38;;;8.00;;
15114;SDS011;7658;51.456;7.622;2023-05-10T09:32:41;13.57;;;8.50;;
15114;SDS011;7658;51.456;7.622;2023-05-10T09:35:09;11.90;;;6.85;;
15114;SDS011;7658;51.456;7.622;2023-05-10T09:37:36;10.85;;;6.10;;
15114;SDS011;7658;51.456;7.622;2023-05-10T09:40:07;10.10;;;6.70;;
15114;SDS011;7658;51.456;7.622;2023-05-10T09:42:36;10.90;;;7.55;;
15114;SDS011;7658;51.456;7.622;2023-05-10T09:45:04;12.57;;;8.43;;
15114;SDS011;7658;51.456;7.622;2023-05-10T09:47:32;10.00;;;7.07;;
15114;SDS011;7658;51.456;7.622;2023-05-10T09:49:59;14.85;;;8.70;;
15114;SDS011;7658;51.456;7.622;2023-05-10T09:55:21;13.93;;;8.85;;
15114;SDS011;7658;51.456;7.622;2023-05-10T09:57:48;13.18;;;8.50;;
15114;SDS011;7658;51.456;7.622;2023-05-10T10:00:23;13.93;;;8.98;;
15114;SDS011;7658;51.456;7.622;2023-05-10T10:02:58;14.50;;;9.93;;
15114;SDS011;7658;51.456;7.622;2023-05-10T10:05:31;15.38;;;9.55;;
15114;SDS011;7658;51.456;7.622;2023-05-10T10:07:58;16.52;;;8.60;;
15114;SDS011;7658;51.456;7.622;2023-05-10T10:10:25;12.00;;;8.18;;
15114;SDS011;7658;51.456;7.622;2023-05-10T10:12:52;12.68;;;8.18;;
15114;SDS011;7658;51.456;7.622;2023-05-10T10:15:20;11.98;;;7.65;;
15114;SDS011;7658;51.456;7.622;2023-05-10T10:17:46;12.23;;;7.40;;
15114;SDS011;7658;51.456;7.622;2023-05-10T10:20:13;11.27;;;7.03;;
15114;SDS011;7658;51.456;7.622;2023-05-10T10:22:40;12.68;;;7.55;;
15114;SDS011;7658;51.456;7.622;2023-05-10T10:25:06;9.65;;;6.75;;
15114;SDS011;7658;51.456;7.622;2023-05-10T10:28:21;9.07;;;6.55;;
15114;SDS011;7658;51.456;7.622;2023-05-10T10:33:10;8.10;;;5.82;;
15114;SDS011;7658;51.456;7.622;2023-05-10T10:36:01;8.05;;;5.85;;
15114;SDS011;7658;51.456;7.622;2023-05-10T10:41:34;10.25;;;5.30;;
15114;SDS011;7658;51.456;7.622;2023-05-10T10:49:31;10.15;;;6.50;;
15114;SDS011;7658;51.456;7.622;2023-05-10T10:54:52;13.18;;;7.45;;
15114;SDS011;7658;51.456;7.622;2023-05-10T10:57:22;10.40;;;7.07;;
15114;SDS011;7658;51.456;7.622;2023-05-10T10:59:48;10.80;;;6.75;;
15114;SDS011;7658;51.456;7.622;2023-05-10T11:10:36;11.05;;;7.95;;
15114;SDS011;7658;51.456;7.622;2023-05-10T11:13:03;10.82;;;7.68;;
15114;SDS011;7658;51.456;7.622;2023-05-10T11:15:36;11.07;;;7.60;;
15114;SDS011;7658;51.456;7.622;2023-05-10T11:18:18;13.93;;;7.40;;
15114;SDS011;7658;51.456;7.622;2023-05-10T11:21:18;16.95;;;8.88;;
15114;SDS011;7658;51.456;7.622;2023-05-10T11:26:09;20.08;;;10.10;;
15114;SDS011;7658;51.456;7.622;2023-05-10T11:28:41;18.33;;;11.73;;
15114;SDS011;7658;51.456;7.622;2023-05-10T11:31:10;24.83;;;13.90;;
15114;SDS011;7658;51.456;7.622;2023-05-10T11:33:43;23.42;;;14.35;;
15114;SDS011;7658;51.456;7.622;2023-05-10T11:36:26;27.80;;;14.30;;
15114;SDS011;7658;51.456;7.622;2023-05-10T11:38:54;22.92;;;13.27;;
15114;SDS011;7658;51.456;7.622;2023-05-10T11:41:21;20.38;;;14.02;;
15114;SDS011;7658;51.456;7.622;2023-05-10T11:43:51;22.25;;;12.55;;
15114;SDS011;7658;51.456;7.622;2023-05-10T11:46:18;26.83;;;14.00;;
15114;SDS011;7658;51.456;7.622;2023-05-10T11:48:45;21.92;;;12.60;;
15114;SDS011;7658;51.456;7.622;2023-05-10T11:51:19;21.08;;;13.68;;
15114;SDS011;7658;51.456;7.622;2023-05-10T11:53:49;20.55;;;12.85;;
15114;SDS011;7658;51.456;7.622;2023-05-10T11:56:16;18.95;;;11.55;;
15114;SDS011;7658;51.456;7.622;2023-05-10T11:58:42;18.05;;;11.60;;
15114;SDS011;7658;51.456;7.622;2023-05-10T12:01:08;15.60;;;10.23;;
15114;SDS011;7658;51.456;7.622;2023-05-10T12:03:35;18.52;;;10.00;;
15114;SDS011;7658;51.456;7.622;2023-05-10T12:06:02;17.58;;;9.93;;
15114;SDS011;7658;51.456;7.622;2023-05-10T12:08:28;18.13;;;9.27;;
15114;SDS011;7658;51.456;7.622;2023-05-10T12:11:06;16.55;;;9.77;;
15114;SDS011;7658;51.456;7.622;2023-05-10T12:13:37;13.90;;;8.48;;
15114;SDS011;7658;51.456;7.622;2023-05-10T12:16:13;16.33;;;9.57;;
15114;SDS011;7658;51.456;7.622;2023-05-10T12:18:50;15.98;;;8.68;;
15114;SDS011;7658;51.456;7.622;2023-05-10T12:21:18;14.02;;;9.23;;
15114;SDS011;7658;51.456;7.622;2023-05-10T12:23:45;14.27;;;9.52;;
15114;SDS011;7658;51.456;7.622;2023-05-10T12:26:12;21.10;;;11.20;;
15114;SDS011;7658;51.456;7.622;2023-05-10T12:28:38;19.08;;;12.48;;
15114;SDS011;7658;51.456;7.622;2023-05-10T12:31:06;18.52;;;13.00;;
15114;SDS011;7658;51.456;7.622;2023-05-10T12:33:38;18.25;;;13.30;;
15114;SDS011;7658;51.456;7.622;2023-05-10T12:36:07;19.73;;;13.50;;
15114;SDS011;7658;51.456;7.622;2023-05-10T12:38:44;18.80;;;13.02;;
15114;SDS011;7658;51.456;7.622;2023-05-10T12:41:14;19.20;;;14.35;;
15114;SDS011;7658;51.456;7.622;2023-05-10T12:43:41;21.95;;;15.45;;
15114;SDS011;7658;51.456;7.622;2023-05-10T12:46:11;20.45;;;14.45;;
15114;SDS011;7658;51.456;7.622;2023-05-10T12:48:39;19.52;;;13.40;;
15114;SDS011;7658;51.456;7.622;2023-05-10T12:51:06;16.75;;;13.88;;
15114;SDS011;7658;51.456;7.622;2023-05-10T12:53:37;19.77;;;15.13;;
15114;SDS011;7658;51.456;7.622;2023-05-10T12:56:04;18.90;;;13.98;;
15114;SDS011;7658;51.456;7.622;2023-05-10T12:58:30;20.52;;;13.80;;
15114;SDS011;7658;51.456;7.622;2023-05-10T13:00:57;19.40;;;13.85;;
15114;SDS011;7658;51.456;7.622;2023-05-10T13:03:23;17.55;;;11.63;;
15114;SDS011;7658;51.456;7.622;2023-05-10T13:05:48;19.65;;;12.75;;
15114;SDS011;7658;51.456;7.622;2023-05-10T13:08:14;17.02;;;13.18;;
15114;SDS011;7658;51.456;7.622;2023-05-10T13:10:40;15.07;;;10.75;;
15114;SDS011;7658;51.456;7.622;2023-05-10T13:13:06;17.48;;;9.55;;
15114;SDS011;7658;51.456;7.622;2023-05-10T13:15:33;16.90;;;10.55;;
15114;SDS011;7658;51.456;7.622;2023-05-10T13:17:59;14.48;;;9.55;;
15114;SDS011;7658;51.456;7.622;2023-05-10T13:20:25;16.55;;;9.85;;
15114;SDS011;7658;51.456;7.622;2023-05-10T13:22:52;16.23;;;11.48;;
15114;SDS011;7658;51.456;7.622;2023-05-10T13:25:18;17.40;;;9.70;;
15114;SDS011;7658;51.456;7.622;2023-05-10T13:27:44;14.18;;;10.13;;
15114;SDS011;7658;51.456;7.622;2023-05-10T13:30:10;14.88;;;10.75;;
15114;SDS011;7658;51.456;7.622;2023-05-10T13:32:36;13.48;;;10.18;;
15114;SDS011;7658;51.456;7.622;2023-05-10T13:35:03;13.70;;;10.80;;
15114;SDS011;7658;51.456;7.622;2023-05-10T13:37:30;14.27;;;10.90;;
15114;SDS011;7658;51.456;7.622;2023-05-10T13:39:57;15.73;;;12.27;;
15114;SDS011;7658;51.456;7.622;2023-05-10T13:42:23;15.05;;;11.50;;
15114;SDS011;7658;51.456;7.622;2023-05-10T13:44:49;16.30;;;11.73;;
15114;SDS011;7658;51.456;7.622;2023-05-10T13:47:15;12.90;;;10.40;;
15114;SDS011;7658;51.456;7.622;2023-05-10T13:49:41;13.85;;;10.75;;
15114;SDS011;7658;51.456;7.622;2023-05-10T13:52:07;13.05;;;10.32;;
15114;SDS011;7658;51.456;7.622;2023-05-10T13:54:35;17.63;;;9.82;;
15114;SDS011;7658;51.456;7.622;2023-05-10T13:57:01;10.95;;;8.63;;
15114;SDS011;7658;51.456;7.622;2023-05-10T13:59:28;11.52;;;9.00;;
15114;SDS011;7658;51.456;7.622;2023-05-10T14:01:56;12.73;;;7.85;;
15114;SDS011;7658;51.456;7.622;2023-05-10T14:04:22;10.52;;;7.40;;
15114;SDS011;7658;51.456;7.622;2023-05-10T14:06:48;11.10;;;8.10;;
15114;SDS011;7658;51.456;7.622;2023-05-10T14:09:14;10.35;;;7.57;;
15114;SDS011;7658;51.456;7.622;2023-05-10T14:11:39;9.25;;;7.47;;
15114;SDS011;7658;51.456;7.622;2023-05-10T14:14:08;10.95;;;7.93;;
15114;SDS011;7658;51.456;7.622;2023-05-10T14:16:34;13.32;;;8.20;;
15114;SDS011;7658;51.456;7.622;2023-05-10T14:19:00;14.77;;;9.18;;
15114;SDS011;7658;51.456;7.622;2023-05-10T14:21:26;12.80;;;8.82;;
15114;SDS011;7658;51.456;7.622;2023-05-10T14:23:54;12.45;;;9.02;;
15114;SDS011;7658;51.456;7.622;2023-05-10T14:26:20;12.85;;;9.32;;
15114;SDS011;7658;51.456;7.622;2023-05-10T14:28:46;12.77;;;8.82;;
15114;SDS011;7658;51.456;7.622;2023-05-10T14:31:12;11.80;;;8.73;;
15114;SDS011;7658;51.456;7.622;2023-05-10T14:33:39;14.20;;;9.02;;
15114;SDS011;7658;51.456;7.622;2023-05-10T14:36:05;16.48;;;9.35;;
15114;SDS011;7658;51.456;7.622;2023-05-10T14:38:32;12.93;;;8.05;;
15114;SDS011;7658;51.456;7.622;2023-05-10T14:40:59;10.82;;;7.38;;
15114;SDS011;7658;51.456;7.622;2023-05-10T14:43:25;15.05;;;7.50;;
15114;SDS011;7658;51.456;7.622;2023-05-10T14:45:52;11.65;;;7.28;;
15114;SDS011;7658;51.456;7.622;2023-05-10T14:48:18;9.55;;;7.43;;
15114;SDS011;7658;51.456;7.622;2023-05-10T14:50:44;11.60;;;8.65;;
15114;SDS011;7658;51.456;7.622;2023-05-10T14:53:11;11.25;;;8.35;;
15114;SDS011;7658;51.456;7.622;2023-05-10T14:55:36;12.95;;;8.50;;
15114;SDS011;7658;51.456;7.622;2023-05-10T14:58:03;12.75;;;9.27;;
15114;SDS011;7658;51.456;7.622;2023-05-10T15:00:29;12.10;;;8.57;;
15114;SDS011;7658;51.456;7.622;2023-05-10T15:02:56;10.48;;;9.05;;
15114;SDS011;7658;51.456;7.622;2023-05-10T15:05:22;12.85;;;9.30;;
15114;SDS011;7658;51.456;7.622;2023-05-10T15:07:48;11.30;;;8.30;;
15114;SDS011;7658;51.456;7.622;2023-05-10T15:10:14;12.18;;;8.20;;
15114;SDS011;7658;51.456;7.622;2023-05-10T15:12:40;12.25;;;8.18;;
15114;SDS011;7658;51.456;7.622;2023-05-10T15:15:06;11.93;;;8.60;;
15114;SDS011;7658;51.456;7.622;2023-05-10T15:17:34;10.32;;;7.20;;
15114;SDS011;7658;51.456;7.622;2023-05-10T15:20:00;9.82;;;7.57;;
15114;SDS011;7658;51.456;7.622;2023-05-10T15:22:28;8.80;;;6.93;;
15114;SDS011;7658;51.456;7.622;2023-05-10T15:24:56;9.43;;;7.00;;